ButlerWeather Station
Hourly Leaf Wetness Data

Source: University of Missouri

To the bottom of the page

Year Month Day Hour Leaf Wetness Total
Precipitation
Avg. Temp Avg. Rel.
Humidity
Wind
Speed
CST mV in mm F C % mph
2023 11 03 1:00 257.4 0.0 0.00 43.1 6.1 50.62 n/a
2023 11 03 2:00 257.5 0.0 0.00 42.6 5.9 53.08 n/a
2023 11 03 3:00 257.5 0.0 0.00 42.7 5.9 53.93 n/a
2023 11 03 4:00 258.1 0.0 0.00 41.7 5.4 56.7 n/a
2023 11 03 5:00 258.2 0.0 0.00 41.2 5.1 58.31 n/a
2023 11 03 6:00 258.2 0.0 0.00 41.9 5.5 57.41 n/a
2023 11 03 7:00 258.1 0.0 0.00 42.5 5.8 56.11 n/a
2023 11 03 8:00 257.3 0.0 0.00 43.7 6.5 54.57 n/a
2023 11 03 9:00 256.1 0.0 0.00 47.7 8.7 49.21 n/a
2023 11 03 10:00 255.9 0.0 0.00 52.9 11.6 43.46 n/a
2023 11 03 11:00 255.4 0.0 0.00 56.5 13.6 40.53 n/a
2023 11 03 12:00 254.6 0.0 0.00 61.3 16.3 36.09 n/a
2023 11 03 13:00 254.6 0.0 0.00 65.3 18.5 32.9 n/a
2023 11 03 14:00 254.5 0.0 0.00 67.8 19.9 31.05 n/a
2023 11 03 15:00 254.5 0.0 0.00 68.8 20.4 30.68 n/a
2023 11 03 16:00 254.6 0.0 0.00 67.7 19.9 31.19 n/a
2023 11 03 17:00 255.1 0.0 0.00 65.9 18.8 33.98 n/a
2023 11 03 18:00 255.3 0.0 0.00 64.5 18.1 36.76 n/a
2023 11 03 19:00 255.7 0.0 0.00 62.5 16.9 40.7 n/a
2023 11 03 20:00 255.9 0.0 0.00 61.6 16.4 44.4 n/a
2023 11 03 21:00 256.3 0.0 0.00 60.2 15.7 49.37 n/a
2023 11 03 22:00 256.6 0.0 0.00 58.6 14.8 52.39 n/a
2023 11 03 23:00 256.7 0.0 0.00 58.0 14.4 52.81 n/a
2023 11 03 24:00 257.3 0.0 0.00 56.3 13.5 54.5 n/a
2023 11 04 1:00 257.7 0.0 0.00 54.3 12.4 56.44 n/a
2023 11 04 2:00 257.9 0.0 0.00 52.7 11.5 56.44 n/a
2023 11 04 3:00 257.6 0.0 0.00 51.8 11.0 55.36 n/a
2023 11 04 4:00 258.1 0.0 0.00 50.3 10.2 61.15 n/a
2023 11 04 5:00 258.6 0.0 0.00 48.9 9.4 64.26 n/a
2023 11 04 6:00 258.9 0.0 0.00 48.2 9.0 64.56 n/a
2023 11 04 7:00 259.4 0.0 0.00 46.6 8.1 66.78 n/a
2023 11 04 8:00 259.3 0.0 0.00 46.4 8.0 71.67 n/a
2023 11 04 9:00 257.6 0.0 0.00 49.4 9.7 61.67 n/a
2023 11 04 10:00 256.8 0.0 0.00 52.1 11.2 58.55 n/a
2023 11 04 11:00 255.6 0.0 0.00 56.1 13.4 52.06 n/a
2023 11 04 12:00 255.9 0.0 0.00 57.9 14.4 48.19 n/a
2023 11 04 13:00 255.9 0.0 0.00 59.4 15.2 45.61 n/a
2023 11 04 14:00 255.6 0.0 0.00 60.3 15.7 42.18 n/a
2023 11 04 15:00 255.2 0.0 0.00 61.8 16.6 38.15 n/a
2023 11 04 16:00 255.8 0.0 0.00 61.6 16.4 38.88 n/a
2023 11 04 17:00 256.2 0.0 0.00 59.4 15.2 43.23 n/a
2023 11 04 18:00 256.9 0.0 0.00 56.0 13.3 50.12 n/a
2023 11 04 19:00 257.6 0.0 0.00 52.9 11.6 57.04 n/a
2023 11 04 20:00 259.2 0.0 0.00 49.5 9.7 65.62 n/a
2023 11 04 21:00 261.3 0.0 0.00 47.0 8.3 73.29 n/a
2023 11 04 22:00 267.1 0.0 0.00 45.4 7.4 77.57 n/a
2023 11 04 23:00 265.1 0.0 0.00 45.8 7.6 75.89 n/a
2023 11 04 24:00 270.3 0.0 0.00 44.3 6.8 78.77 n/a
2023 11 05 1:00 273.0 0.0 0.00 43.2 6.2 82 n/a
2023 11 05 2:00 Wet 288.3 0.0 0.00 42.4 5.8 84.4 n/a
2023 11 05 3:00 Wet 309.3 0.0 0.00 42.5 5.8 84.6 n/a
2023 11 05 4:00 Wet 336.6 0.0 0.00 41.3 5.2 85.9 n/a
2023 11 05 5:00 Wet 378.2 0.0 0.00 40.2 4.6 88.1 n/a
2023 11 05 6:00 Wet 414.2 0.0 0.00 39.9 4.4 89.4 n/a
2023 11 05 7:00 Wet 442.5 0.0 0.00 40.1 4.5 89.4 n/a
2023 11 05 8:00 Wet 410.6 0.0 0.00 42.1 5.6 86.3 n/a
2023 11 05 9:00 269.9 0.0 0.00 48.7 9.3 76.56 n/a
2023 11 05 10:00 257.1 0.0 0.00 56.3 13.5 70.31 n/a
2023 11 05 11:00 256.9 0.0 0.00 58.8 14.9 67.14 n/a
2023 11 05 12:00 256.5 0.0 0.00 63.4 17.4 61.53 n/a
2023 11 05 13:00 256.4 0.0 0.00 67.1 19.5 58.6 n/a
2023 11 05 14:00 256.7 0.0 0.00 69.5 20.9 56.23 n/a
2023 11 05 15:00 256.6 0.0 0.00 70.8 21.5 51.78 n/a
2023 11 05 16:00 256.6 0.0 0.00 71.3 21.8 49.12 n/a
2023 11 05 17:00 256.9 0.0 0.00 69.8 21.0 51.17 n/a
2023 11 05 18:00 257.3 0.0 0.00 67.4 19.7 54.88 n/a
2023 11 05 19:00 257.9 0.0 0.00 65.7 18.7 59.19 n/a
2023 11 05 20:00 258.0 0.0 0.00 64.1 17.8 62.16 n/a
2023 11 05 21:00 258.6 0.0 0.00 62.4 16.9 65.47 n/a
2023 11 05 22:00 258.6 0.0 0.00 62.2 16.8 66.68 n/a
2023 11 05 23:00 259.2 0.0 0.00 61.3 16.3 70.85 n/a
2023 11 05 24:00 260.0 0.0 0.00 60.4 15.8 76.37 n/a
2023 11 06 1:00 260.7 0.0 0.00 60.8 16.0 79.2 n/a
2023 11 06 2:00 261.1 0.0 0.00 61.1 16.1 80.5 n/a
2023 11 06 3:00 261.3 0.0 0.00 61.3 16.3 80.3 n/a
2023 11 06 4:00 261.9 0.0 0.00 60.7 15.9 81.3 n/a
2023 11 06 5:00 263.0 0.0 0.00 60.1 15.6 82.4 n/a
2023 11 06 6:00 263.3 0.0 0.00 60.1 15.6 82.9 n/a
2023 11 06 7:00 265.5 0.0 0.00 59.5 15.3 84.6 n/a
2023 11 06 8:00 263.9 0.0 0.00 59.0 15.0 86.5 n/a
2023 11 06 9:00 258.7 0.0 0.00 61.6 16.4 82.5 n/a
2023 11 06 10:00 257.9 0.0 0.00 64.4 18.0 76.53 n/a
2023 11 06 11:00 257.4 0.0 0.00 66.5 19.2 71.13 n/a
2023 11 06 12:00 257.0 0.0 0.00 68.1 20.1 67.52 n/a
2023 11 06 13:00 256.7 0.0 0.00 70.3 21.3 62.6 n/a
2023 11 06 14:00 257.1 0.0 0.00 70.6 21.5 61.91 n/a
2023 11 06 15:00 257.2 0.0 0.00 70.8 21.6 61.27 n/a
2023 11 06 16:00 257.8 0.0 0.00 70.6 21.4 61.37 n/a
2023 11 06 17:00 258.7 0.0 0.00 69.3 20.7 63.45 n/a
2023 11 06 18:00 259.8 0.0 0.00 66.7 19.3 68.98 n/a
2023 11 06 19:00 260.6 0.0 0.00 64.7 18.2 73.73 n/a
2023 11 06 20:00 261.1 0.0 0.00 63.4 17.5 76.7 n/a
2023 11 06 21:00 263.3 0.0 0.00 61.8 16.6 80.3 n/a
2023 11 06 22:00 267.5 0.0 0.00 60.9 16.0 82.4 n/a
2023 11 06 23:00 268.5 0.0 0.00 59.9 15.5 84.3 n/a
2023 11 06 24:00 263.1 0.0 0.00 59.9 15.5 81.3 n/a
2023 11 07 1:00 261.4 0.0 0.00 60.4 15.8 79.37 n/a
2023 11 07 2:00 260.8 0.0 0.00 61.4 16.3 77.6 n/a
2023 11 07 3:00 260.7 0.0 0.00 62.1 16.7 78.53 n/a
2023 11 07 4:00 260.7 0.0 0.00 62.4 16.9 78.61 n/a
2023 11 07 5:00 260.7 0.0 0.00 62.2 16.8 80 n/a
2023 11 07 6:00 261.2 0.0 0.00 61.7 16.5 81 n/a
2023 11 07 7:00 262.7 0.0 0.00 60.4 15.8 83.7 n/a
2023 11 07 8:00 263.4 0.0 0.00 59.3 15.2 86.2 n/a
2023 11 07 9:00 260.2 0.0 0.00 61.8 16.5 83.6 n/a
2023 11 07 10:00 258.9 0.0 0.00 65.9 18.8 77.6 n/a
2023 11 07 11:00 257.3 0.0 0.00 69.5 20.9 70.36 n/a
2023 11 07 12:00 257.1 0.0 0.00 71.5 21.9 65.56 n/a
2023 11 07 13:00 257.0 0.0 0.00 73.6 23.1 60.75 n/a
2023 11 07 14:00 257.0 0.0 0.00 75.4 24.1 56.92 n/a
2023 11 07 15:00 257.1 0.0 0.00 77.0 25.0 53.83 n/a
2023 11 07 16:00 257.1 0.0 0.00 77.8 25.4 50.57 n/a
2023 11 07 17:00 257.2 0.0 0.00 77.4 25.2 50.54 n/a
2023 11 07 18:00 258.1 0.0 0.00 74.1 23.4 54.96 n/a
2023 11 07 19:00 259.3 0.0 0.00 70.2 21.2 63.08 n/a
2023 11 07 20:00 260.7 0.0 0.00 67.7 19.8 68.06 n/a
2023 11 07 21:00 261.7 0.0 0.00 65.4 18.6 72.84 n/a
2023 11 07 22:00 259.5 0.0 0.00 67.1 19.5 65.59 n/a
2023 11 07 23:00 259.3 0.0 0.00 66.7 19.3 66.39 n/a
2023 11 07 24:00 259.3 0.0 0.00 66.0 18.9 68.97 n/a
2023 11 08 1:00 260.0 0.0 0.00 65.1 18.4 73.11 n/a
2023 11 08 2:00 260.9 0.0 0.00 64.6 18.1 78.23 n/a
2023 11 08 3:00 261.1 0.0 0.00 65.7 18.7 78.98 n/a
2023 11 08 4:00 261.5 0.0 0.00 65.6 18.7 79.5 n/a
2023 11 08 5:00 261.9 0.0 0.00 65.1 18.4 80.8 n/a
2023 11 08 6:00 262.1 0.0 0.00 64.6 18.1 81.6 n/a
2023 11 08 7:00 264.6 0.0 0.00 63.9 17.7 82.2 n/a
2023 11 08 8:00 265.1 0.0 0.00 63.3 17.4 83.4 n/a
2023 11 08 9:00 258.6 0.0 0.00 67.0 19.4 75.22 n/a
2023 11 08 10:00 257.6 0.0 0.00 69.9 21.1 66.01 n/a
2023 11 08 11:00 256.6 0.0 0.00 71.9 22.1 57.39 n/a
2023 11 08 12:00 256.0 0.0 0.00 73.6 23.1 51.38 n/a
2023 11 08 13:00 255.4 0.0 0.00 75.2 24.0 44.59 n/a
2023 11 08 14:00 255.7 0.0 0.00 75.2 24.0 45.19 n/a
2023 11 08 15:00 256.2 0.0 0.00 73.4 23.0 51.23 n/a
2023 11 08 16:00 257.3 0.0 0.00 69.9 21.0 60.31 n/a
2023 11 08 17:00 258.4 0.0 0.00 64.8 18.3 67.45 n/a
2023 11 08 18:00 258.5 0.0 0.00 63.6 17.6 67.36 n/a
2023 11 08 19:00 258.0 0.0 0.00 63.1 17.3 61.25 n/a
2023 11 08 20:00 257.4 0.0 0.00 62.3 16.9 51.14 n/a
2023 11 08 21:00 257.6 0.0 0.00 59.9 15.5 53.05 n/a
2023 11 08 22:00 258.0 0.0 0.00 57.8 14.3 57.49 n/a
2023 11 08 23:00 258.4 0.0 0.00 56.0 13.3 59.23 n/a
2023 11 08 24:00 258.1 0.0 0.00 54.8 12.7 51.11 n/a
2023 11 09 1:00 258.1 0.0 0.00 52.5 11.4 50.8 n/a
2023 11 09 2:00 258.1 0.0 0.00 50.9 10.5 53.28 n/a
2023 11 09 3:00 258.1 0.0 0.00 49.4 9.7 56.76 n/a
2023 11 09 4:00 258.6 0.0 0.00 47.5 8.6 59.25 n/a
2023 11 09 5:00 258.6 0.0 0.00 45.7 7.6 59.89 n/a
2023 11 09 6:00 258.4 0.0 0.00 44.1 6.7 57.28 n/a
2023 11 09 7:00 258.1 0.0 0.00 43.3 6.3 53.2 n/a
2023 11 09 8:00 258.1 0.0 0.00 43.0 6.1 53.6 n/a
2023 11 09 9:00 257.8 0.0 0.00 43.5 6.4 53.69 n/a
2023 11 09 10:00 256.4 0.0 0.00 46.0 7.8 48.75 n/a
2023 11 09 11:00 256.5 0.0 0.00 47.7 8.7 42.76 n/a
2023 11 09 12:00 256.4 0.0 0.00 48.7 9.3 40.57 n/a
2023 11 09 13:00 256.0 0.0 0.00 50.2 10.1 37.93 n/a
2023 11 09 14:00 255.5 0.0 0.00 51.4 10.8 34.57 n/a
2023 11 09 15:00 255.5 0.0 0.00 51.9 11.1 31.82 n/a
2023 11 09 16:00 255.7 0.0 0.00 52.3 11.3 31.2 n/a
2023 11 09 17:00 256.3 0.0 0.00 51.2 10.7 32.93 n/a
2023 11 09 18:00 256.9 0.0 0.00 49.4 9.7 38.62 n/a
2023 11 09 19:00 257.4 0.0 0.00 48.0 8.9 41.67 n/a
2023 11 09 20:00 257.9 0.0 0.00 45.8 7.7 48.6 n/a
2023 11 09 21:00 258.1 0.0 0.00 45.4 7.4 47.59 n/a
2023 11 09 22:00 258.7 0.0 0.00 43.5 6.4 57.27 n/a
2023 11 09 23:00 259.5 0.0 0.00 41.9 5.5 61.57 n/a
2023 11 09 24:00 259.6 0.0 0.00 41.1 5.1 62.48 n/a
2023 11 10 1:00 261.4 0.0 0.00 39.5 4.2 69.02 n/a
2023 11 10 2:00 260.4 0.0 0.00 39.4 4.1 66.33 n/a
2023 11 10 3:00 264.5 0.0 0.00 37.5 3.1 71.47 n/a
2023 11 10 4:00 268.2 0.0 0.00 36.3 2.4 75.86 n/a
2023 11 10 5:00 264.7 0.0 0.00 36.7 2.6 68.98 n/a
2023 11 10 6:00 266.0 0.0 0.00 35.9 2.2 68.32 n/a
2023 11 10 7:00 260.5 0.0 0.00 37.2 2.9 61.88 n/a
2023 11 10 8:00 264.7 0.0 0.00 33.6 0.9 75.55 n/a
2023 11 10 9:00 256.1 0.0 0.00 40.4 4.7 60.83 n/a
2023 11 10 10:00 255.4 0.0 0.00 45.6 7.5 49.24 n/a
2023 11 10 11:00 254.5 0.0 0.00 48.7 9.3 43.74 n/a
2023 11 10 12:00 254.5 0.0 0.00 51.2 10.7 38.81 n/a
2023 11 10 13:00 254.6 0.0 0.00 52.8 11.6 34.61 n/a
2023 11 10 14:00 254.9 0.0 0.00 54.1 12.3 33.08 n/a
2023 11 10 15:00 255.3 0.0 0.00 55.2 12.9 32.38 n/a
2023 11 10 16:00 255.8 0.0 0.00 55.1 12.9 31.19 n/a
2023 11 10 17:00 256.0 0.0 0.00 54.0 12.2 31.61 n/a
2023 11 10 18:00 257.1 0.0 0.00 49.5 9.7 38.58 n/a
2023 11 10 19:00 258.0 0.0 0.00 44.9 7.1 47.03 n/a
2023 11 10 20:00 258.6 0.0 0.00 42.4 5.8 52.24 n/a
2023 11 10 21:00 259.0 0.0 0.00 40.8 4.9 55.28 n/a
2023 11 10 22:00 259.3 0.0 0.00 39.4 4.1 57.29 n/a
2023 11 10 23:00 259.8 0.0 0.00 38.2 3.4 59.31 n/a
2023 11 10 24:00 260.1 0.0 0.00 37.1 2.8 62.1 n/a
2023 11 11 1:00 259.7 0.0 0.00 37.9 3.3 57.74 n/a
2023 11 11 2:00 260.1 0.0 0.00 36.9 2.7 60.11 n/a
2023 11 11 3:00 259.6 0.0 0.00 36.7 2.6 60.58 n/a
2023 11 11 4:00 259.7 0.0 0.00 36.8 2.7 61.05 n/a
2023 11 11 5:00 260.9 0.0 0.00 36.1 2.3 62.93 n/a
2023 11 11 6:00 262.5 0.0 0.00 35.0 1.7 65.39 n/a
2023 11 11 7:00 263.4 0.0 0.00 33.1 0.6 70.67 n/a
2023 11 11 8:00 260.6 0.0 0.00 34.3 1.3 68.63 n/a
2023 11 11 9:00 258.2 0.0 0.00 39.2 4.0 61.72 n/a
2023 11 11 10:00 257.6 0.0 0.00 44.4 6.9 50.64 n/a
2023 11 11 11:00 256.9 0.0 0.00 46.1 7.8 48.67 n/a
2023 11 11 12:00 256.1 0.0 0.00 49.2 9.6 43.75 n/a
2023 11 11 13:00 255.7 0.0 0.00 51.8 11.0 41.57 n/a
2023 11 11 14:00 255.6 0.0 0.00 53.6 12.0 39.27 n/a
2023 11 11 15:00 255.8 0.0 0.00 54.6 12.6 36.2 n/a
2023 11 11 16:00 255.9 0.0 0.00 54.7 12.6 35.15 n/a
2023 11 11 17:00 256.0 0.0 0.00 54.0 12.2 35.63 n/a
2023 11 11 18:00 256.7 0.0 0.00 52.1 11.2 39.13 n/a
2023 11 11 19:00 256.7 0.0 0.00 50.6 10.4 41.72 n/a
2023 11 11 20:00 256.7 0.0 0.00 50.1 10.1 41.95 n/a
2023 11 11 21:00 257.1 0.0 0.00 49.0 9.4 44.02 n/a
2023 11 11 22:00 258.0 0.0 0.00 46.5 8.0 47.89 n/a
2023 11 11 23:00 258.4 0.0 0.00 44.8 7.1 51.03 n/a
2023 11 11 24:00 258.9 0.0 0.00 43.7 6.5 52.38 n/a
2023 11 12 1:00 258.9 0.0 0.00 42.9 6.1 52.98 n/a
2023 11 12 2:00 258.5 0.0 0.00 43.3 6.3 51.11 n/a
2023 11 12 3:00 258.2 0.0 0.00 43.3 6.3 50.68 n/a
2023 11 12 4:00 258.2 0.0 0.00 42.4 5.8 52.28 n/a
2023 11 12 5:00 258.2 0.0 0.00 41.4 5.2 54.8 n/a
2023 11 12 6:00 258.8 0.0 0.00 40.1 4.5 59.08 n/a
2023 11 12 7:00 259.5 0.0 0.00 38.8 3.8 62.47 n/a
2023 11 12 8:00 258.4 0.0 0.00 39.2 4.0 62.47 n/a
2023 11 12 9:00 256.5 0.0 0.00 43.5 6.4 56.73 n/a
2023 11 12 10:00 255.8 0.0 0.00 48.5 9.1 50.22 n/a
2023 11 12 11:00 254.9 0.0 0.00 54.4 12.5 42.56 n/a
2023 11 12 12:00 254.6 0.0 0.00 58.9 14.9 37.44 n/a
2023 11 12 13:00 254.6 0.0 0.00 62.6 17.0 32.15 n/a
2023 11 12 14:00 254.6 0.0 0.00 64.7 18.2 31.45 n/a
2023 11 12 15:00 254.9 0.0 0.00 65.3 18.5 31.99 n/a
2023 11 12 16:00 255.3 0.0 0.00 65.3 18.5 32.87 n/a
2023 11 12 17:00 255.7 0.0 0.00 62.9 17.2 36.56 n/a
2023 11 12 18:00 256.6 0.0 0.00 58.8 14.9 40.77 n/a
2023 11 12 19:00 257.1 0.0 0.00 55.8 13.2 44.88 n/a
2023 11 12 20:00 258.0 0.0 0.00 53.2 11.8 49.29 n/a
2023 11 12 21:00 258.1 0.0 0.00 52.2 11.2 51.09 n/a
2023 11 12 22:00 258.1 0.0 0.00 51.3 10.7 53.06 n/a
2023 11 12 23:00 258.4 0.0 0.00 50.2 10.1 54.86 n/a
2023 11 12 24:00 259.3 0.0 0.00 48.2 9.0 58.51 n/a
2023 11 13 1:00 259.1 0.0 0.00 48.1 9.0 58.18 n/a
2023 11 13 2:00 260.4 0.0 0.00 46.3 7.9 62.31 n/a
2023 11 13 3:00 260.9 0.0 0.00 44.8 7.1 66.25 n/a
2023 11 13 4:00 261.8 0.0 0.00 44.6 7.0 68.3 n/a
2023 11 13 5:00 272.8 0.0 0.00 41.3 5.2 75.8 n/a
2023 11 13 6:00 279.7 0.0 0.00 40.0 4.5 80.3 n/a
2023 11 13 7:00 Wet 303.8 0.0 0.00 38.2 3.4 84.2 n/a
2023 11 13 8:00 Wet 318.9 0.0 0.00 39.3 4.1 84.8 n/a
2023 11 13 9:00 257.2 0.0 0.00 45.3 7.4 74.16 n/a
2023 11 13 10:00 255.3 0.0 0.00 54.5 12.5 48.54 n/a
2023 11 13 11:00 254.2 0.0 0.00 59.7 15.4 34.29 n/a
2023 11 13 12:00 253.9 0.0 0.00 63.2 17.4 28 n/a
2023 11 13 13:00 253.7 0.0 0.00 65.4 18.6 26.75 n/a
2023 11 13 14:00 253.8 0.0 0.00 67.0 19.4 22.35 n/a
2023 11 13 15:00 253.8 0.0 0.00 67.8 19.9 20.6 n/a
2023 11 13 16:00 253.9 0.0 0.00 67.4 19.7 19.72 n/a
2023 11 13 17:00 254.3 0.0 0.00 66.1 19.0 21.27 n/a
2023 11 13 18:00 255.2 0.0 0.00 61.0 16.1 25.76 n/a
2023 11 13 19:00 255.7 0.0 0.00 56.2 13.4 31 n/a
2023 11 13 20:00 256.3 0.0 0.00 52.3 11.3 35.96 n/a
2023 11 13 21:00 256.7 0.0 0.00 50.7 10.4 36.77 n/a
2023 11 13 22:00 256.7 0.0 0.00 50.1 10.1 36.74 n/a
2023 11 13 23:00 256.7 0.0 0.00 49.0 9.4 37.78 n/a
2023 11 13 24:00 256.7 0.0 0.00 48.7 9.3 37.22 n/a
2023 11 14 1:00 256.7 0.0 0.00 49.3 9.6 35.01 n/a
2023 11 14 2:00 256.6 0.0 0.00 49.1 9.5 34.61 n/a
2023 11 14 3:00 256.1 0.0 0.00 49.2 9.6 33.99 n/a
2023 11 14 4:00 256.6 0.0 0.00 47.9 8.8 34.97 n/a
2023 11 14 5:00 256.8 0.0 0.00 46.0 7.8 38.06 n/a
2023 11 14 6:00 257.3 0.0 0.00 43.8 6.6 42.2 n/a
2023 11 14 7:00 257.6 0.0 0.00 43.3 6.3 46.08 n/a
2023 11 14 8:00 257.1 0.0 0.00 44.9 7.2 50.58 n/a
2023 11 14 9:00 255.8 0.0 0.00 47.6 8.7 50.8 n/a
2023 11 14 10:00 255.0 0.0 0.00 52.5 11.4 44.75 n/a
2023 11 14 11:00 254.6 0.0 0.00 58.8 14.9 39.16 n/a
2023 11 14 12:00 254.3 0.0 0.00 62.9 17.2 35.88 n/a
2023 11 14 13:00 254.3 0.0 0.00 65.4 18.5 33.3 n/a
2023 11 14 14:00 254.4 0.0 0.00 66.3 19.1 30.4 n/a
2023 11 14 15:00 254.5 0.0 0.00 66.7 19.3 29.24 n/a
2023 11 14 16:00 254.6 0.0 0.00 66.1 18.9 28.14 n/a
2023 11 14 17:00 254.8 0.0 0.00 64.2 17.9 27.86 n/a
2023 11 14 18:00 255.3 0.0 0.00 60.4 15.8 31.25 n/a
2023 11 14 19:00 255.9 0.0 0.00 57.3 14.1 35.47 n/a
2023 11 14 20:00 256.8 0.0 0.00 52.4 11.3 43.46 n/a
2023 11 14 21:00 256.7 0.0 0.00 52.6 11.4 43.1 n/a
2023 11 14 22:00 257.2 0.0 0.00 51.1 10.6 46.54 n/a
2023 11 14 23:00 257.3 0.0 0.00 50.7 10.4 49.13 n/a
2023 11 14 24:00 257.7 0.0 0.00 49.1 9.5 52.92 n/a
2023 11 15 1:00 258.5 0.0 0.00 46.5 8.0 58.58 n/a
2023 11 15 2:00 259.0 0.0 0.00 44.8 7.1 63.04 n/a
2023 11 15 3:00 259.3 0.0 0.00 44.2 6.8 65.28 n/a
2023 11 15 4:00 259.2 0.0 0.00 44.4 6.9 65.39 n/a
2023 11 15 5:00 259.5 0.0 0.00 43.4 6.3 67.59 n/a
2023 11 15 6:00 259.5 0.0 0.00 42.7 6.0 69.35 n/a
2023 11 15 7:00 260.2 0.0 0.00 41.6 5.3 72.14 n/a
2023 11 15 8:00 259.2 0.0 0.00 42.5 5.8 69.11 n/a
2023 11 15 9:00 256.6 0.0 0.00 47.1 8.4 61.64 n/a
2023 11 15 10:00 255.7 0.0 0.00 52.3 11.3 55.06 n/a
2023 11 15 11:00 255.2 0.0 0.00 58.1 14.5 50.03 n/a
2023 11 15 12:00 254.6 0.0 0.00 62.9 17.2 44.78 n/a
2023 11 15 13:00 254.6 0.0 0.00 65.9 18.9 39.12 n/a
2023 11 15 14:00 254.6 0.0 0.00 67.8 19.9 37.34 n/a
2023 11 15 15:00 254.9 0.0 0.00 68.6 20.4 36.57 n/a
2023 11 15 16:00 255.2 0.0 0.00 68.3 20.2 36.58 n/a
2023 11 15 17:00 255.8 0.0 0.00 66.5 19.2 37.44 n/a
2023 11 15 18:00 256.5 0.0 0.00 62.8 17.1 40.74 n/a
2023 11 15 19:00 257.0 0.0 0.00 59.5 15.3 44.39 n/a
2023 11 15 20:00 257.3 0.0 0.00 57.3 14.1 46.35 n/a
2023 11 15 21:00 257.4 0.0 0.00 55.6 13.1 48.77 n/a
2023 11 15 22:00 257.5 0.0 0.00 54.2 12.4 51.46 n/a
2023 11 15 23:00 258.1 0.0 0.00 52.8 11.6 55.11 n/a
2023 11 15 24:00 258.8 0.0 0.00 50.7 10.4 59.89 n/a
2023 11 16 1:00 258.1 0.0 0.00 51.3 10.7 57.92 n/a
2023 11 16 2:00 258.1 0.0 0.00 51.1 10.6 57.46 n/a
2023 11 16 3:00 258.6 0.0 0.00 48.9 9.4 61.87 n/a
2023 11 16 4:00 259.2 0.0 0.00 46.6 8.1 67.49 n/a
2023 11 16 5:00 259.8 0.0 0.00 45.3 7.4 72.4 n/a
2023 11 16 6:00 261.2 0.0 0.00 45.2 7.3 76.43 n/a
2023 11 16 7:00 262.8 0.0 0.00 45.1 7.3 81.8 n/a
2023 11 16 8:00 261.5 0.0 0.00 46.2 7.9 82.4 n/a
2023 11 16 9:00 260.2 0.0 0.00 49.1 9.5 84.1 n/a
2023 11 16 10:00 259.9 0.0 0.00 53.3 11.8 81.8 n/a
2023 11 16 11:00 259.3 0.0 0.00 55.7 13.2 76.82 n/a
2023 11 16 12:00 258.5 0.0 0.00 58.6 14.8 70.4 n/a
2023 11 16 13:00 258.0 0.0 0.00 59.4 15.2 67.37 n/a
2023 11 16 14:00 258.0 0.0 0.00 59.8 15.4 65.58 n/a
2023 11 16 15:00 258.0 0.0 0.00 60.3 15.7 64.58 n/a
2023 11 16 16:00 258.3 0.0 0.00 60.2 15.7 64.88 n/a
2023 11 16 17:00 258.9 0.0 0.00 59.3 15.1 69.72 n/a
2023 11 16 18:00 259.3 0.0 0.00 58.6 14.8 73.89 n/a
2023 11 16 19:00 259.8 0.0 0.00 58.1 14.5 75.97 n/a
2023 11 16 20:00 260.1 0.0 0.00 57.6 14.2 77.45 n/a
2023 11 16 21:00 262.0 0.0 0.00 56.0 13.3 80.9 n/a
2023 11 16 22:00 262.2 0.0 0.00 55.7 13.2 82.6 n/a
2023 11 16 23:00 262.7 0.0 0.00 55.4 13.0 83.5 n/a
2023 11 16 24:00 263.4 0.0 0.00 55.0 12.8 84.8 n/a
2023 11 17 1:00 261.7 0.0 0.00 54.7 12.6 85.8 n/a
2023 11 17 2:00 211.4 0.0 0.00 53.3 11.8 88.5 n/a
2023 11 17 3:00 258.4 0.0 0.00 52.1 11.2 91.9 n/a
2023 11 17 4:00 Wet 307.9 0.0 0.00 51.9 11.1 95.4 n/a
2023 11 17 5:00 Wet 333.7 0.0 0.00 50.8 10.4 96.1 n/a
2023 11 17 6:00 Wet 371.6 0.0 0.00 49.2 9.5 97 n/a
2023 11 17 7:00 Wet 310.7 0.0 0.00 46.0 7.8 78.04 n/a
2023 11 17 8:00 260.2 0.0 0.00 42.6 5.9 61.63 n/a
2023 11 17 9:00 257.8 0.0 0.00 43.4 6.3 54.99 n/a
2023 11 17 10:00 256.6 0.0 0.00 45.8 7.7 49.06 n/a
2023 11 17 11:00 255.6 0.0 0.00 49.5 9.7 44.32 n/a
2023 11 17 12:00 255.3 0.0 0.00 52.4 11.3 40.48 n/a
2023 11 17 13:00 255.3 0.0 0.00 54.8 12.7 37.01 n/a
2023 11 17 14:00 255.4 0.0 0.00 56.0 13.3 36.49 n/a
2023 11 17 15:00 255.7 0.0 0.00 56.9 13.9 34.76 n/a
2023 11 17 16:00 255.9 0.0 0.00 57.7 14.3 32.9 n/a
2023 11 17 17:00 256.3 0.0 0.00 56.0 13.3 33.37 n/a
2023 11 17 18:00 256.8 0.0 0.00 51.7 11.0 36.7 n/a
2023 11 17 19:00 257.5 0.0 0.00 48.3 9.1 40.77 n/a
2023 11 17 20:00 258.4 0.0 0.00 44.5 6.9 48.62 n/a
2023 11 17 21:00 258.6 0.0 0.00 42.9 6.1 52.48 n/a
2023 11 17 22:00 259.8 0.0 0.00 40.6 4.8 57.12 n/a
2023 11 17 23:00 261.0 0.0 0.00 38.4 3.6 62.93 n/a
2023 11 17 24:00 262.7 0.0 0.00 36.2 2.3 71.01 n/a
2023 11 18 1:00 263.2 0.0 0.00 34.8 1.6 71.28 n/a
2023 11 18 2:00 267.4 0.0 0.00 33.6 0.9 75.27 n/a
2023 11 18 3:00 267.7 0.0 0.00 33.4 0.8 75.56 n/a
2023 11 18 4:00 272.2 0.0 0.00 32.3 0.2 76.63 n/a
2023 11 18 5:00 277.7 0.0 0.00 30.6 -0.8 81 n/a
2023 11 18 6:00 Wet 291.0 0.0 0.00 30.4 -0.9 82.1 n/a
2023 11 18 7:00 Wet 308.1 0.0 0.00 29.7 -1.3 83.4 n/a
2023 11 18 8:00 276.8 0.0 0.00 30.2 -1.0 84.2 n/a
2023 11 18 9:00 262.0 0.0 0.00 37.6 3.1 71.77 n/a
2023 11 18 10:00 255.4 0.0 0.00 45.8 7.6 52.28 n/a
2023 11 18 11:00 255.2 0.0 0.00 50.3 10.2 44.63 n/a
2023 11 18 12:00 254.5 0.0 0.00 54.5 12.5 38.31 n/a
2023 11 18 13:00 254.3 0.0 0.00 57.6 14.2 33.94 n/a
2023 11 18 14:00 254.5 0.0 0.00 59.4 15.2 31.68 n/a
2023 11 18 15:00 254.9 0.0 0.00 60.7 15.9 30.38 n/a
2023 11 18 16:00 255.3 0.0 0.00 61.2 16.2 29.63 n/a
2023 11 18 17:00 255.8 0.0 0.00 59.5 15.3 31.32 n/a
2023 11 18 18:00 256.4 0.0 0.00 56.2 13.4 33.82 n/a
2023 11 18 19:00 257.3 0.0 0.00 52.3 11.3 40.14 n/a
2023 11 18 20:00 257.2 0.0 0.00 51.4 10.8 40.27 n/a
2023 11 18 21:00 257.6 0.0 0.00 49.0 9.5 44.03 n/a
2023 11 18 22:00 257.8 0.0 0.00 48.0 8.9 45.96 n/a
2023 11 18 23:00 258.1 0.0 0.00 46.1 7.8 50.06 n/a
2023 11 18 24:00 258.5 0.0 0.00 45.1 7.3 52.38 n/a
2023 11 19 1:00 258.4 0.0 0.00 45.2 7.3 53.47 n/a
2023 11 19 2:00 258.8 0.0 0.00 44.0 6.7 56.21 n/a
2023 11 19 3:00 259.2 0.0 0.00 42.9 6.0 60.11 n/a
2023 11 19 4:00 259.4 0.0 0.00 42.2 5.7 62.47 n/a
2023 11 19 5:00 259.4 0.0 0.00 42.3 5.7 62 n/a
2023 11 19 6:00 258.9 0.0 0.00 43.9 6.6 59.55 n/a
2023 11 19 7:00 258.8 0.0 0.00 44.3 6.8 59.72 n/a
2023 11 19 8:00 258.1 0.0 0.00 45.7 7.6 56.61 n/a
2023 11 19 9:00 258.1 0.0 0.00 47.7 8.7 54.64 n/a
2023 11 19 10:00 257.5 0.0 0.00 48.9 9.4 51.5 n/a
2023 11 19 11:00 Wet 318.0 0.0 0.51 49.2 9.6 52.54 n/a
2023 11 19 12:00 Wet 355.0 0.0 0.00 46.3 8.0 78.99 n/a
2023 11 19 13:00 279.1 0.0 0.00 48.5 9.2 71.04 n/a
2023 11 19 14:00 Wet 293.2 0.0 0.00 50.1 10.1 69 n/a
2023 11 19 15:00 273.0 0.0 0.00 50.2 10.1 71.65 n/a
2023 11 19 16:00 Wet 420.8 0.0 0.00 50.5 10.3 68.66 n/a
2023 11 19 17:00 Wet 482.0 0.0 0.25 49.0 9.4 69.58 n/a
2023 11 19 18:00 Wet 303.2 0.0 0.00 48.6 9.2 66.77 n/a
2023 11 19 19:00 259.5 0.0 0.00 49.1 9.5 60.76 n/a
2023 11 19 20:00 279.7 0.0 0.00 49.7 9.8 55.96 n/a
2023 11 19 21:00 Wet 429.3 0.0 0.25 48.5 9.2 63.91 n/a
2023 11 19 22:00 Wet 289.0 0.0 0.00 47.5 8.6 67.58 n/a
2023 11 19 23:00 Wet 376.5 0.0 0.25 47.9 8.8 63.82 n/a
2023 11 19 24:00 Wet 554.0 0.1 2.29 45.9 7.7 79.45 n/a
2023 11 20 1:00 Wet 553.5 0.1 2.54 44.1 6.7 87.4 n/a
2023 11 20 2:00 Wet 579.5 0.2 3.81 43.3 6.3 90.2 n/a
2023 11 20 3:00 Wet 532.1 0.1 1.78 42.7 5.9 94.3 n/a
2023 11 20 4:00 Wet 532.8 0.1 1.78 42.3 5.7 93.5 n/a
2023 11 20 5:00 Wet 639.1 0.3 7.87 41.9 5.5 92.9 n/a
2023 11 20 6:00 Wet 450.3 0.1 2.03 41.4 5.2 94.8 n/a
2023 11 20 7:00 Wet 307.4 0.0 0.00 41.7 5.4 88.9 n/a
2023 11 20 8:00 281.4 0.0 0.00 42.0 5.6 87.3 n/a
2023 11 20 9:00 Wet 553.2 0.0 0.76 42.2 5.7 88.2 n/a
2023 11 20 10:00 Wet 521.2 0.0 0.76 42.4 5.8 91.6 n/a
2023 11 20 11:00 Wet 517.0 0.0 0.76 42.9 6.1 94.3 n/a
2023 11 20 12:00 Wet 503.5 0.0 0.00 43.3 6.3 95 n/a
2023 11 20 13:00 Wet 539.6 0.0 0.51 43.6 6.5 95.8 n/a
2023 11 20 14:00 Wet 567.5 0.1 1.27 44.0 6.7 96.4 n/a
2023 11 20 15:00 Wet 511.7 0.0 1.02 44.6 7.0 96.7 n/a
2023 11 20 16:00 Wet 477.2 0.0 0.25 44.6 7.0 96.9 n/a
2023 11 20 17:00 Wet 437.5 0.0 0.00 44.6 7.0 97 n/a
2023 11 20 18:00 Wet 527.0 0.0 0.76 44.6 7.0 97.1 n/a
2023 11 20 19:00 Wet 505.1 0.1 1.27 44.5 6.9 97.2 n/a
2023 11 20 20:00 Wet 448.3 0.0 0.00 43.9 6.6 96.9 n/a
2023 11 20 21:00 Wet 464.2 0.0 0.25 43.2 6.2 96.4 n/a
2023 11 20 22:00 Wet 453.5 0.0 0.00 42.4 5.8 96.4 n/a
2023 11 20 23:00 Wet 460.8 0.0 0.00 42.2 5.7 96.6 n/a
2023 11 20 24:00 Wet 340.3 0.0 0.00 42.2 5.6 95.6 n/a
2023 11 21 1:00 Wet 390.0 0.0 0.00 41.9 5.5 92.8 n/a
2023 11 21 2:00 Wet 303.2 0.0 0.00 41.4 5.2 89.2 n/a
2023 11 21 3:00 267.0 0.0 0.00 41.0 5.0 86.6 n/a
2023 11 21 4:00 261.9 0.0 0.00 41.1 5.0 83.4 n/a
2023 11 21 5:00 261.6 0.0 0.00 40.9 5.0 81.7 n/a
2023 11 21 6:00 262.9 0.0 0.00 40.2 4.5 83.6 n/a
2023 11 21 7:00 262.9 0.0 0.00 39.8 4.4 86.3 n/a
2023 11 21 8:00 262.9 0.0 0.00 40.5 4.7 87.1 n/a
2023 11 21 9:00 262.4 0.0 0.00 41.9 5.5 87.7 n/a
2023 11 21 10:00 261.2 0.0 0.00 44.2 6.8 84.4 n/a
2023 11 21 11:00 261.5 0.0 0.00 44.6 7.0 84.1 n/a
2023 11 21 12:00 264.7 0.0 0.00 44.6 7.0 82 n/a
2023 11 21 13:00 260.8 0.0 0.00 43.1 6.1 76.88 n/a
2023 11 21 14:00 260.3 0.0 0.00 41.2 5.1 73.8 n/a
2023 11 21 15:00 259.4 0.0 0.00 43.5 6.4 66.68 n/a
2023 11 21 16:00 259.0 0.0 0.00 44.4 6.9 60.21 n/a
2023 11 21 17:00 259.4 0.0 0.00 43.0 6.1 59.93 n/a
2023 11 21 18:00 259.5 0.0 0.00 41.1 5.1 61.58 n/a
2023 11 21 19:00 260.2 0.0 0.00 38.4 3.6 67 n/a
2023 11 21 20:00 260.1 0.0 0.00 37.3 2.9 64.8 n/a
2023 11 21 21:00 260.2 0.0 0.00 35.6 2.0 65.63 n/a
2023 11 21 22:00 261.3 0.0 0.00 33.9 1.0 67.85 n/a
2023 11 21 23:00 262.2 0.0 0.00 32.0 0.0 71.21 n/a
2023 11 21 24:00 263.2 0.0 0.00 30.7 -0.7 73.23 n/a
2023 11 22 1:00 262.8 0.0 0.00 29.8 -1.2 74.29 n/a
2023 11 22 2:00 262.5 0.0 0.00 29.1 -1.6 74.39 n/a
2023 11 22 3:00 262.6 0.0 0.00 28.2 -2.1 73.63 n/a
2023 11 22 4:00 262.5 0.0 0.00 27.3 -2.6 73.9 n/a
2023 11 22 5:00 263.0 0.0 0.00 26.6 -3.0 73.68 n/a
2023 11 22 6:00 262.3 0.0 0.00 26.1 -3.3 73.43 n/a
2023 11 22 7:00 262.7 0.0 0.00 25.8 -3.4 73.04 n/a
2023 11 22 8:00 264.0 0.0 0.00 25.7 -3.5 75.22 n/a
2023 11 22 9:00 257.8 0.0 0.00 28.9 -1.7 70.82 n/a
2023 11 22 10:00 256.6 0.0 0.00 33.3 0.7 61.74 n/a
2023 11 22 11:00 256.1 0.0 0.00 37.3 3.0 51.26 n/a
2023 11 22 12:00 256.2 0.0 0.00 39.9 4.4 42.84 n/a
2023 11 22 13:00 256.0 0.0 0.00 42.8 6.0 38.88 n/a
2023 11 22 14:00 256.1 0.0 0.00 44.8 7.1 38.85 n/a
2023 11 22 15:00 256.5 0.0 0.00 46.7 8.1 35.44 n/a
2023 11 22 16:00 256.7 0.0 0.00 47.8 8.8 33.23 n/a
2023 11 22 17:00 256.9 0.0 0.00 46.6 8.1 36.21 n/a
2023 11 22 18:00 257.8 0.0 0.00 43.5 6.4 39.73 n/a
2023 11 22 19:00 258.1 0.0 0.00 41.5 5.3 43.31 n/a
2023 11 22 20:00 258.2 0.0 0.00 39.5 4.2 46.92 n/a
2023 11 22 21:00 258.2 0.0 0.00 38.5 3.6 49.28 n/a
2023 11 22 22:00 258.2 0.0 0.00 37.9 3.3 51.36 n/a
2023 11 22 23:00 258.6 0.0 0.00 37.3 3.0 51.74 n/a
2023 11 22 24:00 259.1 0.0 0.00 36.0 2.2 54.44 n/a
2023 11 23 1:00 259.3 0.0 0.00 35.3 1.9 55.96 n/a
2023 11 23 2:00 259.4 0.0 0.00 34.5 1.4 57.72 n/a
2023 11 23 3:00 259.6 0.0 0.00 34.0 1.1 57.91 n/a
2023 11 23 4:00 259.6 0.0 0.00 33.4 0.8 59.08 n/a
2023 11 23 5:00 259.6 0.0 0.00 33.2 0.7 59.65 n/a
2023 11 23 6:00 260.1 0.0 0.00 32.2 0.1 62.33 n/a
2023 11 23 7:00 260.8 0.0 0.00 31.4 -0.3 65.65 n/a
2023 11 23 8:00 260.8 0.0 0.00 31.3 -0.4 67.59 n/a
2023 11 23 9:00 256.9 0.0 0.00 36.0 2.2 62.66 n/a
2023 11 23 10:00 255.2 0.0 0.00 41.3 5.2 53.28 n/a
2023 11 23 11:00 254.4 0.0 0.00 46.4 8.0 45.46 n/a
2023 11 23 12:00 255.3 0.0 0.00 49.0 9.5 45.72 n/a
2023 11 23 13:00 255.4 0.0 0.00 52.1 11.2 44.78 n/a
2023 11 23 14:00 255.9 0.0 0.00 53.7 12.1 44.22 n/a
2023 11 23 15:00 256.5 0.0 0.00 53.4 11.9 45.1 n/a
2023 11 23 16:00 256.9 0.0 0.00 51.9 11.1 47.67 n/a
2023 11 23 17:00 257.6 0.0 0.00 49.5 9.7 51.27 n/a
2023 11 23 18:00 258.1 0.0 0.00 45.5 7.5 57.87 n/a
2023 11 23 19:00 258.2 0.0 0.00 43.6 6.5 59.4 n/a
2023 11 23 20:00 258.8 0.0 0.00 42.1 5.6 59.38 n/a
2023 11 23 21:00 258.2 0.0 0.00 40.4 4.7 56.18 n/a
2023 11 23 22:00 258.2 0.0 0.00 38.8 3.8 55.57 n/a
2023 11 23 23:00 258.4 0.0 0.00 37.6 3.1 56.51 n/a
2023 11 23 24:00 258.6 0.0 0.00 36.4 2.5 57.03 n/a
2023 11 24 1:00 258.8 0.0 0.00 35.1 1.7 56.73 n/a
2023 11 24 2:00 258.9 0.0 0.00 33.2 0.7 59.58 n/a
2023 11 24 3:00 258.9 0.0 0.00 31.9 -0.0 60.01 n/a
2023 11 24 4:00 258.9 0.0 0.00 30.7 -0.7 60.14 n/a
2023 11 24 5:00 258.9 0.0 0.00 29.8 -1.2 58.74 n/a
2023 11 24 6:00 258.9 0.0 0.00 28.9 -1.7 57.82 n/a
2023 11 24 7:00 258.9 0.0 0.00 28.1 -2.1 58.16 n/a
2023 11 24 8:00 258.9 0.0 0.00 27.9 -2.3 58.46 n/a
2023 11 24 9:00 258.2 0.0 0.00 28.7 -1.8 56.72 n/a
2023 11 24 10:00 257.2 0.0 0.00 31.2 -0.5 53.59 n/a
2023 11 24 11:00 257.4 0.0 0.00 32.8 0.4 52.55 n/a
2023 11 24 12:00 257.8 0.0 0.00 33.2 0.7 53.53 n/a
2023 11 24 13:00 257.7 0.0 0.00 34.4 1.3 52.9 n/a
2023 11 24 14:00 257.5 0.0 0.00 35.8 2.1 51.24 n/a
2023 11 24 15:00 257.5 0.0 0.00 36.9 2.7 49.93 n/a
2023 11 24 16:00 257.5 0.0 0.00 36.8 2.7 49.2 n/a
2023 11 24 17:00 257.9 0.0 0.00 35.9 2.2 48.56 n/a
2023 11 24 18:00 258.2 0.0 0.00 33.2 0.6 52.55 n/a
2023 11 24 19:00 258.3 0.0 0.00 31.4 -0.3 53.9 n/a
2023 11 24 20:00 258.8 0.0 0.00 30.3 -0.9 54.44 n/a
2023 11 24 21:00 258.9 0.0 0.00 29.2 -1.5 55.89 n/a
2023 11 24 22:00 258.9 0.0 0.00 28.5 -2.0 57.33 n/a
2023 11 24 23:00 259.0 0.0 0.00 28.3 -2.1 58.1 n/a
2023 11 24 24:00 259.0 0.0 0.00 27.9 -2.3 58.68 n/a
2023 11 25 1:00 259.0 0.0 0.00 27.2 -2.7 60.11 n/a
2023 11 25 2:00 259.0 0.0 0.00 26.9 -2.8 59.46 n/a
2023 11 25 3:00 259.1 0.0 0.00 26.4 -3.1 60.77 n/a
2023 11 25 4:00 259.6 0.0 0.00 25.5 -3.6 63.99 n/a
2023 11 25 5:00 259.6 0.0 0.00 24.6 -4.1 67.63 n/a
2023 11 25 6:00 259.9 0.0 0.00 24.1 -4.4 69.39 n/a
2023 11 25 7:00 260.1 0.0 0.00 23.9 -4.5 70.9 n/a
2023 11 25 8:00 260.0 0.0 0.00 24.2 -4.3 72.31 n/a
2023 11 25 9:00 258.2 0.0 0.00 26.6 -3.0 70.33 n/a
2023 11 25 10:00 258.1 0.0 0.00 30.4 -0.9 69.69 n/a
2023 11 25 11:00 257.9 0.0 0.00 33.5 0.8 67.53 n/a
2023 11 25 12:00 257.5 0.0 0.00 35.8 2.1 65.23 n/a
2023 11 25 13:00 257.4 0.0 0.00 38.2 3.4 63.11 n/a
2023 11 25 14:00 257.4 0.0 0.00 41.2 5.1 59.24 n/a
2023 11 25 15:00 257.7 0.0 0.00 42.2 5.7 57.63 n/a
2023 11 25 16:00 258.1 0.0 0.00 41.8 5.4 60.01 n/a
2023 11 25 17:00 258.2 0.0 0.00 41.1 5.0 60.76 n/a
2023 11 25 18:00 258.8 0.0 0.00 40.0 4.4 62.8 n/a
2023 11 25 19:00 259.5 0.0 0.00 38.8 3.8 66.2 n/a
2023 11 25 20:00 Wet 485.4 0.0 0.25 37.6 3.1 74.55 n/a
2023 11 25 21:00 Wet 577.1 0.1 1.78 36.0 2.2 84.1 n/a
2023 11 25 22:00 Wet 550.1 0.0 0.25 35.2 1.8 87.8 n/a
2023 11 25 23:00 Wet 518.1 0.0 0.25 35.0 1.7 88.8 n/a
2023 11 25 24:00 Wet 568.5 0.0 0.25 34.0 1.1 92 n/a
2023 11 26 1:00 Wet 533.0 0.0 0.51 32.7 0.4 94.4 n/a
2023 11 26 2:00 Wet 314.3 0.0 0.00 30.3 -0.9 95.5 n/a
2023 11 26 3:00 275.8 0.0 0.00 29.2 -1.6 96.4 n/a
2023 11 26 4:00 269.9 0.0 0.00 28.1 -2.2 96.1 n/a
2023 11 26 5:00 263.6 0.0 0.00 26.7 -2.9 91.5 n/a
2023 11 26 6:00 262.4 0.0 0.00 26.3 -3.1 85.5 n/a
2023 11 26 7:00 262.3 0.0 0.00 26.5 -3.1 83.7 n/a
2023 11 26 8:00 261.8 0.0 0.00 26.3 -3.1 81.2 n/a
2023 11 26 9:00 261.0 0.0 0.00 26.1 -3.3 79.08 n/a
2023 11 26 10:00 259.4 0.0 0.00 27.2 -2.7 78.04 n/a
2023 11 26 11:00 258.5 0.0 0.00 29.3 -1.5 71.98 n/a
2023 11 26 12:00 258.2 0.0 0.25 31.8 -0.1 67.81 n/a
2023 11 26 13:00 258.2 0.0 0.00 33.9 1.1 62.46 n/a
2023 11 26 14:00 258.2 0.0 0.00 35.2 1.8 62.27 n/a
2023 11 26 15:00 258.9 0.0 0.00 34.8 1.5 65.05 n/a
2023 11 26 16:00 258.9 0.0 0.00 35.4 1.9 62.52 n/a
2023 11 26 17:00 259.1 0.0 0.00 34.8 1.6 63.07 n/a
2023 11 26 18:00 260.1 0.0 0.00 32.7 0.4 69.23 n/a
2023 11 26 19:00 261.0 0.0 0.00 31.8 -0.1 71.84 n/a
2023 11 26 20:00 262.8 0.0 0.00 30.2 -1.0 75.91 n/a
2023 11 26 21:00 273.1 0.0 0.00 29.4 -1.4 78.65 n/a
2023 11 26 22:00 Wet 290.5 0.0 0.00 28.9 -1.7 80.1 n/a
2023 11 26 23:00 268.4 0.0 0.00 28.5 -2.0 81 n/a
2023 11 26 24:00 270.2 0.0 0.00 27.3 -2.6 82.4 n/a
2023 11 27 1:00 271.9 0.0 0.00 26.3 -3.2 82.4 n/a
2023 11 27 2:00 273.2 0.0 0.00 25.6 -3.5 82 n/a
2023 11 27 3:00 274.7 0.0 0.00 24.5 -4.2 83.5 n/a
2023 11 27 4:00 276.1 0.0 0.00 23.7 -4.6 84.8 n/a
2023 11 27 5:00 277.6 0.0 0.00 22.8 -5.1 86.4 n/a
2023 11 27 6:00 278.8 0.0 0.00 21.7 -5.7 86.4 n/a
2023 11 27 7:00 279.9 0.0 0.00 20.9 -6.2 86.6 n/a
2023 11 27 8:00 280.8 0.0 0.00 20.7 -6.3 86.4 n/a
2023 11 27 9:00 Wet 288.3 0.0 0.00 24.4 -4.2 83.1 n/a
2023 11 27 10:00 Wet 284.4 0.0 0.00 30.4 -0.9 72.1 n/a
2023 11 27 11:00 258.2 0.0 0.00 36.1 2.3 60.08 n/a
2023 11 27 12:00 256.9 0.0 0.00 40.2 4.5 51.21 n/a
2023 11 27 13:00 256.7 0.0 0.00 43.0 6.1 45.08 n/a
2023 11 27 14:00 256.7 0.0 0.00 44.6 7.0 41.1 n/a
2023 11 27 15:00 257.0 0.0 0.00 45.6 7.5 39.84 n/a
2023 11 27 16:00 256.7 0.0 0.00 45.9 7.7 36.18 n/a
2023 11 27 17:00 257.3 0.0 0.00 43.8 6.5 41.13 n/a
2023 11 27 18:00 258.1 0.0 0.00 40.0 4.5 47.15 n/a
2023 11 27 19:00 258.9 0.0 0.00 36.4 2.5 56.36 n/a
2023 11 27 20:00 259.5 0.0 0.00 34.1 1.2 62.48 n/a
2023 11 27 21:00 260.3 0.0 0.00 32.6 0.3 65.96 n/a
2023 11 27 22:00 261.2 0.0 0.00 31.5 -0.3 68.36 n/a
2023 11 27 23:00 264.8 0.0 0.00 30.3 -0.9 71.55 n/a
2023 11 27 24:00 263.2 0.0 0.00 29.6 -1.3 73.49 n/a
2023 11 28 1:00 266.2 0.0 0.00 28.2 -2.1 77.47 n/a
2023 11 28 2:00 266.2 0.0 0.00 27.5 -2.5 78.62 n/a
2023 11 28 3:00 265.3 0.0 0.00 27.8 -2.3 75.62 n/a
2023 11 28 4:00 264.2 0.0 0.00 26.7 -2.9 75.42 n/a
2023 11 28 5:00 265.5 0.0 0.00 25.0 -3.9 76.15 n/a
2023 11 28 6:00 267.5 0.0 0.00 22.7 -5.2 81.1 n/a
2023 11 28 7:00 270.0 0.0 0.00 21.4 -5.9 83.6 n/a
2023 11 28 8:00 272.2 0.0 0.00 20.9 -6.2 84.5 n/a
2023 11 28 9:00 269.7 0.0 0.00 25.6 -3.5 72.72 n/a
2023 11 28 10:00 257.5 0.0 0.00 29.6 -1.4 60.59 n/a
2023 11 28 11:00 256.7 0.0 0.00 32.8 0.4 50.69 n/a
2023 11 28 12:00 256.7 0.0 0.00 36.0 2.2 47.81 n/a
2023 11 28 13:00 256.7 0.0 0.00 38.6 3.7 45.97 n/a
2023 11 28 14:00 256.7 0.0 0.00 41.2 5.1 43.23 n/a
2023 11 28 15:00 257.1 0.0 0.00 43.1 6.2 40.86 n/a
2023 11 28 16:00 257.3 0.0 0.00 44.0 6.6 39.42 n/a
2023 11 28 17:00 257.5 0.0 0.00 43.2 6.2 42.34 n/a
2023 11 28 18:00 258.1 0.0 0.00 40.6 4.8 47.12 n/a
2023 11 28 19:00 258.2 0.0 0.00 39.2 4.0 50.22 n/a
2023 11 28 20:00 258.2 0.0 0.00 38.6 3.7 51.71 n/a
2023 11 28 21:00 259.0 0.0 0.00 36.9 2.7 57.23 n/a
2023 11 28 22:00 259.8 0.0 0.00 34.9 1.6 63.29 n/a
2023 11 28 23:00 260.4 0.0 0.00 34.4 1.3 67.38 n/a
2023 11 28 24:00 261.3 0.0 0.00 33.9 1.1 70.11 n/a
2023 11 29 1:00 261.7 0.0 0.00 34.5 1.4 70.36 n/a
2023 11 29 2:00 262.2 0.0 0.00 34.2 1.2 71.8 n/a
2023 11 29 3:00 266.0 0.0 0.00 32.5 0.3 75.9 n/a
2023 11 29 4:00 269.9 0.0 0.00 31.9 -0.1 78.37 n/a
2023 11 29 5:00 279.0 0.0 0.00 31.2 -0.5 80.1 n/a
2023 11 29 6:00 Wet 289.5 0.0 0.00 30.7 -0.7 81.6 n/a
2023 11 29 7:00 272.1 0.0 0.00 28.8 -1.8 84.8 n/a
2023 11 29 8:00 272.1 0.0 0.00 28.7 -1.8 86.6 n/a
2023 11 29 9:00 282.4 0.0 0.00 31.9 -0.1 84.3 n/a
2023 11 29 10:00 257.1 0.0 0.00 37.3 3.0 73.72 n/a
2023 11 29 11:00 256.7 0.0 0.00 43.2 6.2 61.99 n/a
2023 11 29 12:00 256.3 0.0 0.00 49.0 9.4 50.64 n/a
2023 11 29 13:00 256.1 0.0 0.00 52.3 11.3 43.63 n/a
2023 11 29 14:00 255.8 0.0 0.00 55.1 12.8 35 n/a
2023 11 29 15:00 255.7 0.0 0.00 56.3 13.5 31.7 n/a
2023 11 29 16:00 256.1 0.0 0.00 55.9 13.3 35.04 n/a
2023 11 29 17:00 256.4 0.0 0.00 54.3 12.4 36.23 n/a
2023 11 29 18:00 257.3 0.0 0.00 50.3 10.2 41.94 n/a
2023 11 29 19:00 258.0 0.0 0.00 47.7 8.7 47.05 n/a
2023 11 29 20:00 258.1 0.0 0.00 47.2 8.5 50.18 n/a
2023 11 29 21:00 258.1 0.0 0.00 46.1 7.8 53.68 n/a
2023 11 29 22:00 258.1 0.0 0.00 45.5 7.5 57.53 n/a
2023 11 29 23:00 258.8 0.0 0.00 44.4 6.9 62.84 n/a
2023 11 29 24:00 258.8 0.0 0.00 44.4 6.9 61.95 n/a
2023 11 30 1:00 258.8 0.0 0.00 44.3 6.8 61.81 n/a
2023 11 30 2:00 258.8 0.0 0.00 43.6 6.5 63.75 n/a
2023 11 30 3:00 258.8 0.0 0.00 44.1 6.7 62.75 n/a
2023 11 30 4:00 258.8 0.0 0.00 44.4 6.9 62.81 n/a
2023 11 30 5:00 258.8 0.0 0.00 45.0 7.2 61.38 n/a
2023 11 30 6:00 258.3 0.0 0.00 45.5 7.5 61.65 n/a
2023 11 30 7:00 258.1 0.0 0.00 47.0 8.4 61.67 n/a
2023 11 30 8:00 258.1 0.0 0.00 48.8 9.3 60.27 n/a
2023 11 30 9:00 258.1 0.0 0.00 49.9 10.0 60.39 n/a
2023 11 30 10:00 258.1 0.0 0.00 50.7 10.4 62.09 n/a
2023 11 30 11:00 258.1 0.0 0.00 52.0 11.1 64.55 n/a
2023 11 30 12:00 258.4 0.0 0.00 53.2 11.8 67.04 n/a
2023 11 30 13:00 258.8 0.0 0.00 53.1 11.7 71.36 n/a
2023 11 30 14:00 269.5 0.0 0.00 51.2 10.7 82.1 n/a
2023 11 30 15:00 Wet 422.8 0.0 0.00 49.9 9.9 92.1 n/a
2023 11 30 16:00 Wet 452.8 0.0 0.00 49.7 9.8 96.2 n/a
2023 11 30 17:00 Wet 495.8 0.0 0.25 49.4 9.7 97.2 n/a
2023 11 30 18:00 Wet 544.2 0.0 0.25 49.2 9.6 97.6 n/a
2023 11 30 19:00 Wet 555.3 0.0 0.25 49.1 9.5 97.8 n/a
2023 11 30 20:00 Wet 559.7 0.0 1.02 48.9 9.4 98 n/a
2023 11 30 21:00 Wet 522.5 0.0 1.02 48.5 9.2 98.1 n/a
2023 11 30 22:00 Wet 629.2 0.1 3.56 48.3 9.1 98.1 n/a
2023 11 30 23:00 Wet 684.3 0.2 5.08 48.4 9.1 98.2 n/a
2023 11 30 24:00 Wet 669.7 0.2 4.83 48.3 9.1 98.2 n/a
2023 12 01 1:00 Wet 635.6 0.1 3.05 47.8 8.8 98.2 n/a
2023 12 01 2:00 Wet 553.7 0.0 0.51 47.5 8.6 98.2 n/a
2023 12 01 3:00 Wet 446.3 0.0 0.25 46.8 8.2 98 n/a
2023 12 01 4:00 Wet 376.5 0.0 0.00 43.5 6.4 97.5 n/a
2023 12 01 5:00 Wet 325.0 0.0 0.00 41.3 5.2 96.5 n/a
2023 12 01 6:00 283.7 0.0 0.00 40.0 4.4 95.4 n/a
2023 12 01 7:00 263.8 0.0 0.00 39.8 4.3 93.1 n/a
2023 12 01 8:00 263.4 0.0 0.00 39.4 4.1 89.5 n/a
2023 12 01 9:00 273.9 0.0 0.00 38.6 3.7 91.1 n/a
2023 12 01 10:00 Wet 333.5 0.0 0.00 37.8 3.2 95.2 n/a
2023 12 01 11:00 Wet 304.1 0.0 0.00 37.5 3.0 95.3 n/a
2023 12 01 12:00 268.7 0.0 0.00 37.2 2.9 94.1 n/a
2023 12 01 13:00 262.9 0.0 0.00 37.4 3.0 92.1 n/a
2023 12 01 14:00 262.3 0.0 0.00 38.2 3.4 88.8 n/a
2023 12 01 15:00 263.0 0.0 0.00 37.3 2.9 89.5 n/a
2023 12 01 16:00 262.9 0.0 0.00 36.6 2.5 89 n/a
2023 12 01 17:00 264.7 0.0 0.00 36.3 2.4 87.5 n/a
2023 12 01 18:00 Wet 470.7 0.0 0.00 35.4 1.9 88.1 n/a
2023 12 01 19:00 Wet 469.2 0.0 0.25 34.9 1.6 91.2 n/a
2023 12 01 20:00 Wet 376.5 0.0 0.00 34.6 1.4 92.2 n/a
2023 12 01 21:00 Wet 343.0 0.0 0.00 34.6 1.5 91.1 n/a
2023 12 01 22:00 Wet 320.4 0.0 0.00 34.8 1.6 91.9 n/a
2023 12 01 23:00 Wet 306.0 0.0 0.00 34.7 1.5 93.3 n/a
2023 12 01 24:00 Wet 292.8 0.0 0.00 34.7 1.5 93.2 n/a
2023 12 02 1:00 270.7 0.0 0.00 34.8 1.6 93.1 n/a
2023 12 02 2:00 267.0 0.0 0.00 34.9 1.6 93.4 n/a
2023 12 02 3:00 267.0 0.0 0.00 35.0 1.7 93.6 n/a
2023 12 02 4:00 267.4 0.0 0.00 35.1 1.7 93.8 n/a
2023 12 02 5:00 267.5 0.0 0.00 35.1 1.7 94.1 n/a
2023 12 02 6:00 267.1 0.0 0.00 35.1 1.7 94.3 n/a
2023 12 02 7:00 265.7 0.0 0.00 35.2 1.8 93.9 n/a
2023 12 02 8:00 265.6 0.0 0.00 35.3 1.8 93.7 n/a
2023 12 02 9:00 263.5 0.0 0.00 35.8 2.1 93.2 n/a
2023 12 02 10:00 262.3 0.0 0.00 36.8 2.6 89.7 n/a
2023 12 02 11:00 262.4 0.0 0.00 37.1 2.9 89.3 n/a
2023 12 02 12:00 261.7 0.0 0.00 38.0 3.4 87.2 n/a
2023 12 02 13:00 261.2 0.0 0.00 38.8 3.8 85.8 n/a
2023 12 02 14:00 261.0 0.0 0.00 39.4 4.1 82.5 n/a
2023 12 02 15:00 273.7 0.0 0.00 39.8 4.3 81.7 n/a
2023 12 02 16:00 Wet 465.0 0.0 0.00 40.0 4.4 83.5 n/a
2023 12 02 17:00 Wet 478.5 0.0 0.00 39.8 4.3 87.8 n/a
2023 12 02 18:00 Wet 395.4 0.0 0.00 39.7 4.3 87.3 n/a
2023 12 02 19:00 Wet 310.5 0.0 0.00 39.8 4.4 87.5 n/a
2023 12 02 20:00 Wet 306.2 0.0 0.00 39.8 4.3 88.8 n/a
2023 12 02 21:00 Wet 477.1 0.0 0.25 39.5 4.2 91.8 n/a
2023 12 02 22:00 Wet 439.7 0.0 0.00 39.1 3.9 95.2 n/a
2023 12 02 23:00 Wet 424.9 0.0 0.00 38.7 3.7 96 n/a
2023 12 02 24:00 Wet 376.2 0.0 0.00 38.0 3.3 95.5 n/a
2023 12 03 1:00 Wet 344.2 0.0 0.00 36.8 2.7 94.2 n/a
2023 12 03 2:00 Wet 305.8 0.0 0.00 35.9 2.1 90.4 n/a
2023 12 03 3:00 266.8 0.0 0.00 35.2 1.8 85.6 n/a
2023 12 03 4:00 262.5 0.0 0.00 34.5 1.4 83.7 n/a
2023 12 03 5:00 263.7 0.0 0.00 33.3 0.7 85 n/a
2023 12 03 6:00 263.0 0.0 0.00 33.1 0.6 85.5 n/a
2023 12 03 7:00 263.0 0.0 0.00 33.2 0.6 86.4 n/a
2023 12 03 8:00 263.0 0.0 0.00 32.8 0.5 87 n/a
CST mV in mm F C % mph
Year Month Day Hour Leaf Wetness Total
Precipitation
Avg. Temp Avg. Rel.
Humidity
Wind
Speed

Back to the top of the page